sensor_id;sensor_type;location;lat;lon;timestamp;pressure;altitude;pressure_sealevel;temperature;humidity
47883;BME280;37739;50.350;7.578;2023-11-22T00:01:22;100517.63;;;6.09;92.49
47883;BME280;37739;50.350;7.578;2023-11-22T00:03:50;100516.53;;;6.05;93.42
47883;BME280;37739;50.350;7.578;2023-11-22T00:06:18;100520.19;;;6.09;94.69
47883;BME280;37739;50.350;7.578;2023-11-22T00:08:46;100530.88;;;6.17;94.61
47883;BME280;37739;50.350;7.578;2023-11-22T00:11:12;100532.13;;;6.10;94.17
47883;BME280;37739;50.350;7.578;2023-11-22T00:13:40;100532.63;;;6.04;93.43
47883;BME280;37739;50.350;7.578;2023-11-22T00:16:08;100529.91;;;6.15;94.34
47883;BME280;37739;50.350;7.578;2023-11-22T00:18:37;100534.56;;;5.95;92.70
47883;BME280;37739;50.350;7.578;2023-11-22T00:21:05;100535.72;;;6.00;93.54
47883;BME280;37739;50.350;7.578;2023-11-22T00:23:33;100538.97;;;5.98;93.52
47883;BME280;37739;50.350;7.578;2023-11-22T00:25:58;100544.16;;;5.99;93.76
47883;BME280;37739;50.350;7.578;2023-11-22T00:28:24;100552.91;;;6.03;93.52
47883;BME280;37739;50.350;7.578;2023-11-22T00:30:49;100545.41;;;5.81;92.77
47883;BME280;37739;50.350;7.578;2023-11-22T00:33:14;100559.94;;;5.82;92.91
47883;BME280;37739;50.350;7.578;2023-11-22T00:35:42;100562.00;;;5.87;93.25
47883;BME280;37739;50.350;7.578;2023-11-22T00:38:07;100551.81;;;5.87;93.26
47883;BME280;37739;50.350;7.578;2023-11-22T00:40:35;100556.78;;;5.98;93.90
47883;BME280;37739;50.350;7.578;2023-11-22T00:43:00;100561.22;;;5.88;92.03
47883;BME280;37739;50.350;7.578;2023-11-22T00:45:28;100559.72;;;5.79;93.68
47883;BME280;37739;50.350;7.578;2023-11-22T00:47:57;100567.69;;;5.71;92.78
47883;BME280;37739;50.350;7.578;2023-11-22T00:50:22;100568.03;;;5.76;93.17
47883;BME280;37739;50.350;7.578;2023-11-22T00:52:48;100564.34;;;5.84;92.97
47883;BME280;37739;50.350;7.578;2023-11-22T00:55:15;100568.28;;;5.93;92.69
47883;BME280;37739;50.350;7.578;2023-11-22T00:57:43;100570.13;;;5.82;92.27
47883;BME280;37739;50.350;7.578;2023-11-22T01:00:13;100576.03;;;5.69;92.15
47883;BME280;37739;50.350;7.578;2023-11-22T01:02:41;100576.03;;;5.69;92.17
47883;BME280;37739;50.350;7.578;2023-11-22T01:05:07;100582.44;;;5.64;90.54
47883;BME280;37739;50.350;7.578;2023-11-22T01:07:43;100594.19;;;5.74;90.54
47883;BME280;37739;50.350;7.578;2023-11-22T01:10:11;100592.91;;;5.80;90.85
47883;BME280;37739;50.350;7.578;2023-11-22T01:12:36;100593.22;;;5.85;91.12
47883;BME280;37739;50.350;7.578;2023-11-22T01:15:01;100586.50;;;5.85;91.35
47883;BME280;37739;50.350;7.578;2023-11-22T01:17:27;100592.81;;;5.79;88.01
47883;BME280;37739;50.350;7.578;2023-11-22T01:19:52;100588.59;;;5.79;88.96
47883;BME280;37739;50.350;7.578;2023-11-22T01:22:18;100585.19;;;5.79;89.60
47883;BME280;37739;50.350;7.578;2023-11-22T01:24:46;100581.19;;;5.82;90.38
47883;BME280;37739;50.350;7.578;2023-11-22T01:27:11;100583.31;;;5.76;88.82
47883;BME280;37739;50.350;7.578;2023-11-22T01:29:39;100595.78;;;5.85;89.69
47883;BME280;37739;50.350;7.578;2023-11-22T01:32:07;100589.50;;;5.80;90.46
47883;BME280;37739;50.350;7.578;2023-11-22T01:34:34;100592.25;;;5.83;89.72
47883;BME280;37739;50.350;7.578;2023-11-22T01:37:03;100591.81;;;5.77;89.55
47883;BME280;37739;50.350;7.578;2023-11-22T01:39:28;100594.72;;;5.69;89.85
47883;BME280;37739;50.350;7.578;2023-11-22T01:41:54;100599.28;;;5.74;90.50
47883;BME280;37739;50.350;7.578;2023-11-22T01:44:19;100601.13;;;5.76;89.90
47883;BME280;37739;50.350;7.578;2023-11-22T01:46:47;100603.00;;;5.79;89.96
47883;BME280;37739;50.350;7.578;2023-11-22T01:49:12;100611.31;;;5.76;90.03
47883;BME280;37739;50.350;7.578;2023-11-22T01:51:39;100604.97;;;5.83;90.08
47883;BME280;37739;50.350;7.578;2023-11-22T01:54:10;100601.31;;;5.79;90.03
47883;BME280;37739;50.350;7.578;2023-11-22T01:56:38;100595.63;;;5.70;90.29
47883;BME280;37739;50.350;7.578;2023-11-22T01:59:07;100589.66;;;5.58;88.40
47883;BME280;37739;50.350;7.578;2023-11-22T02:01:32;100592.31;;;5.59;89.98
47883;BME280;37739;50.350;7.578;2023-11-22T02:03:58;100597.56;;;5.49;89.69
47883;BME280;37739;50.350;7.578;2023-11-22T02:06:23;100594.09;;;5.60;90.85
47883;BME280;37739;50.350;7.578;2023-11-22T02:08:49;100596.81;;;5.75;90.48
47883;BME280;37739;50.350;7.578;2023-11-22T02:11:18;100600.44;;;5.79;89.04
47883;BME280;37739;50.350;7.578;2023-11-22T02:13:50;100605.38;;;5.52;89.20
47883;BME280;37739;50.350;7.578;2023-11-22T02:16:17;100599.97;;;5.59;89.51
47883;BME280;37739;50.350;7.578;2023-11-22T02:18:48;100602.28;;;5.56;89.63
47883;BME280;37739;50.350;7.578;2023-11-22T02:21:13;100614.09;;;5.67;90.17
47883;BME280;37739;50.350;7.578;2023-11-22T02:23:42;100607.47;;;5.58;88.66
47883;BME280;37739;50.350;7.578;2023-11-22T02:26:10;100614.25;;;5.57;90.38
47883;BME280;37739;50.350;7.578;2023-11-22T02:28:35;100612.91;;;5.62;91.34
47883;BME280;37739;50.350;7.578;2023-11-22T02:31:00;100613.97;;;5.78;90.99
47883;BME280;37739;50.350;7.578;2023-11-22T02:33:26;100617.13;;;5.87;90.31
47883;BME280;37739;50.350;7.578;2023-11-22T02:35:54;100622.56;;;5.92;90.41
47883;BME280;37739;50.350;7.578;2023-11-22T02:38:21;100624.16;;;5.78;90.17
47883;BME280;37739;50.350;7.578;2023-11-22T02:40:49;100629.59;;;5.70;90.41
47883;BME280;37739;50.350;7.578;2023-11-22T02:43:15;100630.09;;;5.53;89.61
47883;BME280;37739;50.350;7.578;2023-11-22T02:45:43;100635.09;;;5.40;91.59
47883;BME280;37739;50.350;7.578;2023-11-22T02:48:08;100633.75;;;5.33;92.28
47883;BME280;37739;50.350;7.578;2023-11-22T02:50:37;100636.97;;;5.30;92.92
47883;BME280;37739;50.350;7.578;2023-11-22T02:53:05;100638.94;;;5.46;93.96
47883;BME280;37739;50.350;7.578;2023-11-22T02:55:30;100648.34;;;5.47;93.71
47883;BME280;37739;50.350;7.578;2023-11-22T02:57:59;100651.44;;;5.55;94.13
47883;BME280;37739;50.350;7.578;2023-11-22T03:00:24;100647.22;;;5.56;93.75
47883;BME280;37739;50.350;7.578;2023-11-22T03:02:50;100652.19;;;5.66;93.40
47883;BME280;37739;50.350;7.578;2023-11-22T03:05:19;100663.81;;;5.62;92.62
47883;BME280;37739;50.350;7.578;2023-11-22T03:07:48;100662.91;;;5.62;92.69
47883;BME280;37739;50.350;7.578;2023-11-22T03:10:13;100667.91;;;5.48;93.22
47883;BME280;37739;50.350;7.578;2023-11-22T03:12:38;100665.91;;;5.56;93.31
47883;BME280;37739;50.350;7.578;2023-11-22T03:15:06;100674.13;;;5.52;93.89
47883;BME280;37739;50.350;7.578;2023-11-22T03:17:32;100673.69;;;5.46;93.77
47883;BME280;37739;50.350;7.578;2023-11-22T03:20:03;100667.50;;;5.30;94.58
47883;BME280;37739;50.350;7.578;2023-11-22T03:22:34;100679.47;;;5.31;94.78
47883;BME280;37739;50.350;7.578;2023-11-22T03:25:03;100676.25;;;5.34;96.16
47883;BME280;37739;50.350;7.578;2023-11-22T03:27:31;100675.25;;;5.32;95.76
47883;BME280;37739;50.350;7.578;2023-11-22T03:29:56;100682.75;;;5.30;95.13
47883;BME280;37739;50.350;7.578;2023-11-22T03:32:22;100679.44;;;5.08;95.17
47883;BME280;37739;50.350;7.578;2023-11-22T03:34:52;100677.00;;;4.98;93.63
47883;BME280;37739;50.350;7.578;2023-11-22T03:37:20;100677.44;;;5.16;94.16
47883;BME280;37739;50.350;7.578;2023-11-22T03:39:47;100688.66;;;5.29;91.76
47883;BME280;37739;50.350;7.578;2023-11-22T03:42:16;100681.66;;;5.03;90.86
47883;BME280;37739;50.350;7.578;2023-11-22T03:44:42;100689.41;;;5.05;92.14
47883;BME280;37739;50.350;7.578;2023-11-22T03:47:07;100684.31;;;4.93;88.49
47883;BME280;37739;50.350;7.578;2023-11-22T03:49:32;100687.06;;;4.96;89.91
47883;BME280;37739;50.350;7.578;2023-11-22T03:51:58;100695.53;;;4.85;88.69
47883;BME280;37739;50.350;7.578;2023-11-22T03:54:28;100697.00;;;4.81;87.65
47883;BME280;37739;50.350;7.578;2023-11-22T03:56:55;100695.13;;;4.90;87.69
47883;BME280;37739;50.350;7.578;2023-11-22T03:59:21;100701.19;;;4.92;87.30
47883;BME280;37739;50.350;7.578;2023-11-22T04:01:48;100705.19;;;4.89;87.79
47883;BME280;37739;50.350;7.578;2023-11-22T04:04:14;100709.50;;;4.90;85.91
47883;BME280;37739;50.350;7.578;2023-11-22T04:06:39;100712.59;;;4.86;84.47
47883;BME280;37739;50.350;7.578;2023-11-22T04:09:05;100707.38;;;4.84;84.78
47883;BME280;37739;50.350;7.578;2023-11-22T04:11:33;100706.28;;;4.92;84.85
47883;BME280;37739;50.350;7.578;2023-11-22T04:14:00;100706.28;;;4.92;84.02
47883;BME280;37739;50.350;7.578;2023-11-22T04:16:27;100712.59;;;4.98;84.01
47883;BME280;37739;50.350;7.578;2023-11-22T04:18:53;100720.69;;;5.04;83.23
47883;BME280;37739;50.350;7.578;2023-11-22T04:21:18;100715.50;;;5.14;83.64
47883;BME280;37739;50.350;7.578;2023-11-22T04:23:46;100715.72;;;5.17;83.55
47883;BME280;37739;50.350;7.578;2023-11-22T04:26:15;100737.41;;;5.12;83.26
47883;BME280;37739;50.350;7.578;2023-11-22T04:28:41;100732.41;;;5.02;82.50
47883;BME280;37739;50.350;7.578;2023-11-22T04:31:08;100739.16;;;5.01;83.16
47883;BME280;37739;50.350;7.578;2023-11-22T04:33:34;100737.25;;;4.87;82.13
47883;BME280;37739;50.350;7.578;2023-11-22T04:36:00;100747.50;;;4.88;82.55
47883;BME280;37739;50.350;7.578;2023-11-22T04:38:26;100754.56;;;4.81;83.23
47883;BME280;37739;50.350;7.578;2023-11-22T04:40:53;100765.94;;;4.74;82.59
47883;BME280;37739;50.350;7.578;2023-11-22T04:43:21;100779.06;;;4.68;82.25
47883;BME280;37739;50.350;7.578;2023-11-22T04:45:46;100786.13;;;4.61;82.90
47883;BME280;37739;50.350;7.578;2023-11-22T04:48:14;100792.03;;;4.71;83.07
47883;BME280;37739;50.350;7.578;2023-11-22T04:50:40;100797.88;;;4.70;83.68
47883;BME280;37739;50.350;7.578;2023-11-22T04:53:06;100802.91;;;4.59;83.79
47883;BME280;37739;50.350;7.578;2023-11-22T04:55:31;100814.00;;;4.49;83.25
47883;BME280;37739;50.350;7.578;2023-11-22T04:57:56;100817.78;;;4.32;84.42
47883;BME280;37739;50.350;7.578;2023-11-22T05:00:22;100816.94;;;4.21;84.92
47883;BME280;37739;50.350;7.578;2023-11-22T05:02:50;100813.44;;;4.09;81.94
47883;BME280;37739;50.350;7.578;2023-11-22T05:05:16;100813.75;;;4.24;82.71
47883;BME280;37739;50.350;7.578;2023-11-22T05:07:42;100809.44;;;4.23;83.39
47883;BME280;37739;50.350;7.578;2023-11-22T05:10:07;100813.75;;;4.24;82.82
47883;BME280;37739;50.350;7.578;2023-11-22T05:12:36;100801.66;;;4.31;82.64
47883;BME280;37739;50.350;7.578;2023-11-22T05:15:02;100801.19;;;4.25;81.17
47883;BME280;37739;50.350;7.578;2023-11-22T05:17:27;100796.44;;;4.30;81.50
47883;BME280;37739;50.350;7.578;2023-11-22T05:19:55;100801.88;;;4.35;82.36
47883;BME280;37739;50.350;7.578;2023-11-22T05:22:23;100800.59;;;4.40;81.27
47883;BME280;37739;50.350;7.578;2023-11-22T05:24:51;100798.00;;;4.28;81.59
47883;BME280;37739;50.350;7.578;2023-11-22T05:27:17;100788.50;;;4.15;80.23
47883;BME280;37739;50.350;7.578;2023-11-22T05:29:45;100792.59;;;4.13;80.15
47883;BME280;37739;50.350;7.578;2023-11-22T05:32:10;100798.44;;;4.12;80.90
47883;BME280;37739;50.350;7.578;2023-11-22T05:34:36;100800.66;;;4.29;80.58
47883;BME280;37739;50.350;7.578;2023-11-22T05:37:01;100809.63;;;4.36;80.46
47883;BME280;37739;50.350;7.578;2023-11-22T05:39:31;100811.88;;;4.43;79.75
47883;BME280;37739;50.350;7.578;2023-11-22T05:41:57;100806.38;;;4.27;81.16
47883;BME280;37739;50.350;7.578;2023-11-22T05:44:22;100816.31;;;4.24;80.07
47883;BME280;37739;50.350;7.578;2023-11-22T05:46:47;100826.13;;;4.09;79.02
47883;BME280;37739;50.350;7.578;2023-11-22T05:49:15;100829.13;;;3.93;77.84
47883;BME280;37739;50.350;7.578;2023-11-22T05:51:40;100840.06;;;3.82;78.99
47883;BME280;37739;50.350;7.578;2023-11-22T05:54:06;100849.72;;;3.65;78.94
47883;BME280;37739;50.350;7.578;2023-11-22T05:56:32;100851.91;;;3.61;79.68
47883;BME280;37739;50.350;7.578;2023-11-22T05:58:57;100860.13;;;3.68;80.11
47883;BME280;37739;50.350;7.578;2023-11-22T06:01:25;100863.44;;;3.57;79.80
47883;BME280;37739;50.350;7.578;2023-11-22T06:03:53;100868.41;;;3.66;78.30
47883;BME280;37739;50.350;7.578;2023-11-22T06:06:18;100872.97;;;3.49;78.13
47883;BME280;37739;50.350;7.578;2023-11-22T06:08:46;100874.63;;;3.49;79.00
47883;BME280;37739;50.350;7.578;2023-11-22T06:11:14;100875.88;;;3.44;78.40
47883;BME280;37739;50.350;7.578;2023-11-22T06:13:44;100873.09;;;3.71;79.52
47883;BME280;37739;50.350;7.578;2023-11-22T06:16:09;100882.16;;;3.90;78.81
47883;BME280;37739;50.350;7.578;2023-11-22T06:18:35;100889.19;;;3.72;78.81
47883;BME280;37739;50.350;7.578;2023-11-22T06:21:07;100893.25;;;3.60;79.51
47883;BME280;37739;50.350;7.578;2023-11-22T06:23:33;100885.16;;;3.64;79.16
47883;BME280;37739;50.350;7.578;2023-11-22T06:25:58;100884.13;;;3.51;79.77
47883;BME280;37739;50.350;7.578;2023-11-22T06:28:24;100886.16;;;3.25;79.72
47883;BME280;37739;50.350;7.578;2023-11-22T06:30:49;100884.66;;;3.37;80.10
47883;BME280;37739;50.350;7.578;2023-11-22T06:33:17;100885.91;;;3.52;80.51
47883;BME280;37739;50.350;7.578;2023-11-22T06:35:45;100887.78;;;3.65;79.82
47883;BME280;37739;50.350;7.578;2023-11-22T06:38:11;100880.78;;;3.73;79.97
47883;BME280;37739;50.350;7.578;2023-11-22T06:40:38;100874.72;;;3.81;79.62
47883;BME280;37739;50.350;7.578;2023-11-22T06:43:04;100887.63;;;3.84;79.94
47883;BME280;37739;50.350;7.578;2023-11-22T06:45:32;100890.09;;;3.31;79.33
47883;BME280;37739;50.350;7.578;2023-11-22T06:47:59;100882.00;;;3.25;80.45
47883;BME280;37739;50.350;7.578;2023-11-22T06:50:25;100886.00;;;3.13;78.86
47883;BME280;37739;50.350;7.578;2023-11-22T06:52:55;100887.78;;;3.34;80.84
47883;BME280;37739;50.350;7.578;2023-11-22T06:55:20;100898.22;;;3.38;79.49
47883;BME280;37739;50.350;7.578;2023-11-22T06:57:45;100900.84;;;3.29;79.79
47883;BME280;37739;50.350;7.578;2023-11-22T07:00:13;100901.75;;;3.50;80.45
47883;BME280;37739;50.350;7.578;2023-11-22T07:02:39;100906.06;;;3.61;79.93
47883;BME280;37739;50.350;7.578;2023-11-22T07:05:07;100897.81;;;3.53;80.16
47883;BME280;37739;50.350;7.578;2023-11-22T07:07:36;100903.16;;;3.57;78.83
47883;BME280;37739;50.350;7.578;2023-11-22T07:10:02;100909.50;;;3.41;77.67
47883;BME280;37739;50.350;7.578;2023-11-22T07:12:27;100907.84;;;3.31;78.57
47883;BME280;37739;50.350;7.578;2023-11-22T07:14:55;100908.63;;;3.41;79.08
47883;BME280;37739;50.350;7.578;2023-11-22T07:17:24;100910.66;;;3.45;78.78
47883;BME280;37739;50.350;7.578;2023-11-22T07:19:52;100906.06;;;3.30;77.48
47883;BME280;37739;50.350;7.578;2023-11-22T07:22:18;100898.44;;;3.30;77.82
47883;BME280;37739;50.350;7.578;2023-11-22T07:24:50;100891.72;;;3.31;76.85
47883;BME280;37739;50.350;7.578;2023-11-22T07:27:20;100895.00;;;3.09;74.11
47883;BME280;37739;50.350;7.578;2023-11-22T07:29:47;100894.63;;;3.05;75.78
47883;BME280;37739;50.350;7.578;2023-11-22T07:32:13;100893.84;;;3.06;75.45
47883;BME280;37739;50.350;7.578;2023-11-22T07:34:39;100905.56;;;3.14;76.43
47883;BME280;37739;50.350;7.578;2023-11-22T07:37:06;100895.28;;;3.23;76.75
47883;BME280;37739;50.350;7.578;2023-11-22T07:39:38;100903.13;;;3.15;76.78
47883;BME280;37739;50.350;7.578;2023-11-22T07:42:05;100899.84;;;3.17;76.67
47883;BME280;37739;50.350;7.578;2023-11-22T07:44:36;100899.97;;;3.39;77.13
47883;BME280;37739;50.350;7.578;2023-11-22T07:47:03;100898.81;;;3.25;75.52
47883;BME280;37739;50.350;7.578;2023-11-22T07:49:31;100912.66;;;3.28;77.34
47883;BME280;37739;50.350;7.578;2023-11-22T07:51:56;100913.25;;;2.95;74.37
47883;BME280;37739;50.350;7.578;2023-11-22T07:54:26;100911.22;;;3.01;76.17
47883;BME280;37739;50.350;7.578;2023-11-22T07:56:55;100915.28;;;3.09;75.88
47883;BME280;37739;50.350;7.578;2023-11-22T07:59:21;100932.03;;;3.07;77.41
47883;BME280;37739;50.350;7.578;2023-11-22T08:01:46;100942.81;;;3.05;76.52
47883;BME280;37739;50.350;7.578;2023-11-22T08:04:13;100951.81;;;3.11;76.51
47883;BME280;37739;50.350;7.578;2023-11-22T08:06:38;100960.38;;;2.93;76.28
47883;BME280;37739;50.350;7.578;2023-11-22T08:09:06;100967.22;;;2.94;77.67
47883;BME280;37739;50.350;7.578;2023-11-22T08:11:33;100978.53;;;2.98;76.91
47883;BME280;37739;50.350;7.578;2023-11-22T08:13:59;100981.84;;;3.07;77.29
47883;BME280;37739;50.350;7.578;2023-11-22T08:16:25;100969.97;;;3.16;76.02
47883;BME280;37739;50.350;7.578;2023-11-22T08:18:53;100978.53;;;3.08;76.69
47883;BME280;37739;50.350;7.578;2023-11-22T08:21:21;100978.06;;;3.12;76.29
47883;BME280;37739;50.350;7.578;2023-11-22T08:23:48;100990.56;;;3.00;75.66
47883;BME280;37739;50.350;7.578;2023-11-22T08:26:13;101000.75;;;3.10;75.84
47883;BME280;37739;50.350;7.578;2023-11-22T08:28:39;100995.25;;;2.95;76.83
47883;BME280;37739;50.350;7.578;2023-11-22T08:31:05;100987.63;;;2.95;76.72
47883;BME280;37739;50.350;7.578;2023-11-22T08:33:34;100997.34;;;3.10;76.58
47883;BME280;37739;50.350;7.578;2023-11-22T08:35:59;100996.34;;;3.18;75.53
47883;BME280;37739;50.350;7.578;2023-11-22T08:38:29;100991.00;;;3.15;74.90
47883;BME280;37739;50.350;7.578;2023-11-22T08:41:00;100982.16;;;3.30;75.83
47883;BME280;37739;50.350;7.578;2023-11-22T08:43:26;100965.78;;;3.27;74.78
47883;BME280;37739;50.350;7.578;2023-11-22T08:45:54;100953.66;;;3.33;73.77
47883;BME280;37739;50.350;7.578;2023-11-22T08:48:19;100944.13;;;3.41;74.94
47883;BME280;37739;50.350;7.578;2023-11-22T08:50:45;100940.56;;;3.59;74.06
47883;BME280;37739;50.350;7.578;2023-11-22T08:53:12;100938.03;;;3.59;71.21
47883;BME280;37739;50.350;7.578;2023-11-22T08:55:40;100938.19;;;3.50;67.74
47883;BME280;37739;50.350;7.578;2023-11-22T08:58:10;100931.06;;;3.36;67.16
47883;BME280;37739;50.350;7.578;2023-11-22T09:00:35;100927.63;;;3.36;67.70
47883;BME280;37739;50.350;7.578;2023-11-22T09:03:01;100938.00;;;3.39;66.73
47883;BME280;37739;50.350;7.578;2023-11-22T09:05:26;100942.84;;;3.36;64.98
47883;BME280;37739;50.350;7.578;2023-11-22T09:07:53;100947.31;;;3.48;65.06
47883;BME280;37739;50.350;7.578;2023-11-22T09:10:25;100954.78;;;3.47;65.38
47883;BME280;37739;50.350;7.578;2023-11-22T09:12:52;100963.78;;;3.33;64.49
47883;BME280;37739;50.350;7.578;2023-11-22T09:15:22;100960.72;;;3.27;63.30
47883;BME280;37739;50.350;7.578;2023-11-22T09:17:52;100959.59;;;3.33;63.02
47883;BME280;37739;50.350;7.578;2023-11-22T09:20:21;100967.84;;;3.62;64.38
47883;BME280;37739;50.350;7.578;2023-11-22T09:22:48;100972.94;;;3.82;63.46
47883;BME280;37739;50.350;7.578;2023-11-22T09:25:19;100986.16;;;3.99;62.72
47883;BME280;37739;50.350;7.578;2023-11-22T09:27:49;100999.19;;;4.03;63.25
47883;BME280;37739;50.350;7.578;2023-11-22T09:30:19;101013.31;;;4.10;63.21
47883;BME280;37739;50.350;7.578;2023-11-22T09:33:10;101025.44;;;4.35;61.85
47883;BME280;37739;50.350;7.578;2023-11-22T09:35:37;101018.75;;;4.35;60.47
47883;BME280;37739;50.350;7.578;2023-11-22T09:38:06;101019.72;;;4.47;60.77
47883;BME280;37739;50.350;7.578;2023-11-22T09:40:37;101027.38;;;4.17;62.07
47883;BME280;37739;50.350;7.578;2023-11-22T09:43:05;101039.06;;;4.25;62.02
47883;BME280;37739;50.350;7.578;2023-11-22T09:45:31;101051.00;;;4.36;62.16
47883;BME280;37739;50.350;7.578;2023-11-22T09:48:02;101042.56;;;4.58;62.01
47883;BME280;37739;50.350;7.578;2023-11-22T09:53:33;101019.22;;;4.41;61.32
47883;BME280;37739;50.350;7.578;2023-11-22T09:56:02;101015.78;;;4.51;60.96
47883;BME280;37739;50.350;7.578;2023-11-22T09:58:33;101024.25;;;4.62;61.31
47883;BME280;37739;50.350;7.578;2023-11-22T10:01:02;101020.69;;;4.60;60.53
47883;BME280;37739;50.350;7.578;2023-11-22T10:03:28;101023.03;;;4.89;61.54
47883;BME280;37739;50.350;7.578;2023-11-22T10:05:56;101014.81;;;5.03;60.98
47883;BME280;37739;50.350;7.578;2023-11-22T10:08:25;101019.09;;;5.15;60.42
47883;BME280;37739;50.350;7.578;2023-11-22T10:10:55;101015.75;;;5.26;60.34
47883;BME280;37739;50.350;7.578;2023-11-22T10:13:21;101009.63;;;5.46;60.24
47883;BME280;37739;50.350;7.578;2023-11-22T10:15:54;101011.00;;;5.53;58.73
47883;BME280;37739;50.350;7.578;2023-11-22T10:18:28;101007.00;;;5.56;58.28
47883;BME280;37739;50.350;7.578;2023-11-22T10:20:56;101017.75;;;5.30;59.52
47883;BME280;37739;50.350;7.578;2023-11-22T10:23:28;101024.25;;;5.04;57.21
47883;BME280;37739;50.350;7.578;2023-11-22T10:25:59;101029.81;;;5.32;59.87
47883;BME280;37739;50.350;7.578;2023-11-22T10:28:32;101020.53;;;5.55;55.68
47883;BME280;37739;50.350;7.578;2023-11-22T10:30:57;101011.63;;;5.50;60.25
47883;BME280;37739;50.350;7.578;2023-11-22T10:33:23;101016.13;;;5.42;57.81
47883;BME280;37739;50.350;7.578;2023-11-22T10:35:51;101014.47;;;5.65;60.73
47883;BME280;37739;50.350;7.578;2023-11-22T10:38:23;101004.13;;;5.51;55.09
47883;BME280;37739;50.350;7.578;2023-11-22T10:40:54;101009.88;;;5.27;57.99
47883;BME280;37739;50.350;7.578;2023-11-22T10:43:21;101000.09;;;5.21;58.26
47883;BME280;37739;50.350;7.578;2023-11-22T10:45:51;101012.31;;;5.25;58.19
47883;BME280;37739;50.350;7.578;2023-11-22T10:48:20;101018.06;;;5.45;58.07
47883;BME280;37739;50.350;7.578;2023-11-22T10:50:47;101011.84;;;5.41;57.47
47883;BME280;37739;50.350;7.578;2023-11-22T10:53:15;101005.94;;;5.64;57.34
47883;BME280;37739;50.350;7.578;2023-11-22T10:55:46;101007.75;;;5.77;54.34
47883;BME280;37739;50.350;7.578;2023-11-22T10:58:16;101006.00;;;5.76;56.16
47883;BME280;37739;50.350;7.578;2023-11-22T11:00:45;100991.47;;;5.75;57.15
47883;BME280;37739;50.350;7.578;2023-11-22T11:03:20;100990.13;;;6.02;57.60
47883;BME280;37739;50.350;7.578;2023-11-22T11:05:58;101003.13;;;6.17;54.32
47883;BME280;37739;50.350;7.578;2023-11-22T11:08:28;101001.91;;;6.12;54.72
47883;BME280;37739;50.350;7.578;2023-11-22T11:10:57;101001.25;;;5.93;54.37
47883;BME280;37739;50.350;7.578;2023-11-22T11:13:23;101003.69;;;6.25;55.92
47883;BME280;37739;50.350;7.578;2023-11-22T11:15:50;101003.81;;;6.38;56.33
47883;BME280;37739;50.350;7.578;2023-11-22T11:18:19;101006.03;;;6.22;55.09
47883;BME280;37739;50.350;7.578;2023-11-22T11:23:19;101015.22;;;6.55;53.75
47883;BME280;37739;50.350;7.578;2023-11-22T11:25:47;101020.09;;;6.40;56.03
47883;BME280;37739;50.350;7.578;2023-11-22T11:28:15;101016.09;;;6.32;54.46
47883;BME280;37739;50.350;7.578;2023-11-22T11:35:51;101019.84;;;6.25;54.70
47883;BME280;37739;50.350;7.578;2023-11-22T11:38:20;101029.38;;;6.16;53.49
47883;BME280;37739;50.350;7.578;2023-11-22T11:40:47;101028.72;;;6.31;56.23
47883;BME280;37739;50.350;7.578;2023-11-22T11:43:13;101028.41;;;6.61;55.27
47883;BME280;37739;50.350;7.578;2023-11-22T11:45:39;101024.56;;;6.66;54.16
47883;BME280;37739;50.350;7.578;2023-11-22T11:48:07;101016.91;;;6.66;52.83
47883;BME280;37739;50.350;7.578;2023-11-22T11:50:33;101023.56;;;6.64;55.07
47883;BME280;37739;50.350;7.578;2023-11-22T11:53:00;101024.13;;;6.60;55.15
47883;BME280;37739;50.350;7.578;2023-11-22T11:55:30;101021.44;;;6.47;54.31
47883;BME280;37739;50.350;7.578;2023-11-22T11:57:57;101019.88;;;5.92;52.61
47883;BME280;37739;50.350;7.578;2023-11-22T12:00:34;101016.22;;;6.22;55.46
47883;BME280;37739;50.350;7.578;2023-11-22T12:03:02;101006.22;;;6.25;52.16
47883;BME280;37739;50.350;7.578;2023-11-22T12:05:28;100994.84;;;6.32;53.00
47883;BME280;37739;50.350;7.578;2023-11-22T12:07:54;100994.88;;;5.98;52.96
47883;BME280;37739;50.350;7.578;2023-11-22T12:10:19;100994.91;;;6.21;54.72
47883;BME280;37739;50.350;7.578;2023-11-22T12:12:44;100986.28;;;6.31;54.43
47883;BME280;37739;50.350;7.578;2023-11-22T12:15:11;100980.53;;;6.45;53.36
47883;BME280;37739;50.350;7.578;2023-11-22T12:17:36;100976.00;;;6.41;50.75
47883;BME280;37739;50.350;7.578;2023-11-22T12:20:10;100982.53;;;6.14;51.05
47883;BME280;37739;50.350;7.578;2023-11-22T12:22:36;100989.59;;;6.06;54.52
47883;BME280;37739;50.350;7.578;2023-11-22T12:25:04;100986.06;;;6.28;54.13
47883;BME280;37739;50.350;7.578;2023-11-22T12:27:30;100985.84;;;6.13;55.84
47883;BME280;37739;50.350;7.578;2023-11-22T12:29:56;100991.16;;;6.04;54.48
47883;BME280;37739;50.350;7.578;2023-11-22T12:32:24;100993.72;;;6.16;55.26
47883;BME280;37739;50.350;7.578;2023-11-22T12:34:49;100993.84;;;6.41;55.04
47883;BME280;37739;50.350;7.578;2023-11-22T12:37:22;100994.41;;;6.37;55.31
47883;BME280;37739;50.350;7.578;2023-11-22T12:39:49;100994.03;;;6.33;54.58
47883;BME280;37739;50.350;7.578;2023-11-22T12:42:17;100987.28;;;6.33;56.58
47883;BME280;37739;50.350;7.578;2023-11-22T12:44:52;100987.25;;;5.98;55.47
47883;BME280;37739;50.350;7.578;2023-11-22T12:47:35;100975.13;;;5.83;55.58
47883;BME280;37739;50.350;7.578;2023-11-22T12:50:02;100974.16;;;5.93;53.25
47883;BME280;37739;50.350;7.578;2023-11-22T12:52:29;100965.88;;;5.96;52.09
47883;BME280;37739;50.350;7.578;2023-11-22T12:54:55;100959.16;;;5.74;50.37
47883;BME280;37739;50.350;7.578;2023-11-22T12:57:24;100943.94;;;5.64;53.40
47883;BME280;37739;50.350;7.578;2023-11-22T12:59:53;100916.63;;;5.85;53.78
47883;BME280;37739;50.350;7.578;2023-11-22T13:02:20;100928.03;;;6.12;53.25
47883;BME280;37739;50.350;7.578;2023-11-22T13:04:51;100925.78;;;6.05;52.17
47883;BME280;37739;50.350;7.578;2023-11-22T13:07:16;100906.69;;;5.88;51.96
47883;BME280;37739;50.350;7.578;2023-11-22T13:09:41;100898.63;;;5.94;52.13
47883;BME280;37739;50.350;7.578;2023-11-22T13:12:06;100890.69;;;6.01;53.36